Time;durP1;ratioP1;P1;durP2;ratioP2;P2;SDS_P1;SDS_P2;PMS_P1;PMS_P2;Temp;Humidity;BMP_temperature;BMP_pressure;BME280_temperature;BME280_humidity;BME280_pressure;Samples;Min_cycle;Max_cycle;Signal;HPM_P1;HPM_P2
2022/06/09 00:00:27;;;;;;;5.43;2.38;;;14.90;99.90;;;;;;6256558;22;20018;-89
2022/06/09 00:02:57;;;;;;;6.13;3.25;;;14.80;99.90;;;;;;6256544;22;20456;-89
2022/06/09 00:05:23;;;;;;;7.65;4.15;;;14.90;99.90;;;;;;6256524;22;20050;-90
2022/06/09 00:07:50;;;;;;;8.50;4.00;;;14.90;99.90;;;;;;6282014;22;20023;-90
2022/06/09 00:10:22;;;;;;;8.43;4.70;;;14.90;99.90;;;;;;6256597;22;20019;-90
2022/06/09 00:12:48;;;;;;;10.75;4.55;;;14.90;99.90;;;;;;6256596;22;20011;-91
2022/06/09 00:15:14;;;;;;;8.13;4.70;;;14.90;99.90;;;;;;6256477;22;20015;-89
2022/06/09 00:17:41;;;;;;;9.38;4.40;;;14.90;99.90;;;;;;6260838;22;20449;-90
2022/06/09 00:20:07;;;;;;;;;;;14.90;99.90;;;;;;6256935;22;20015;-89
2022/06/09 00:22:33;;;;;;;8.88;4.35;;;14.90;99.90;;;;;;6281977;22;19958;-90
2022/06/09 00:24:58;;;;;;;10.40;5.03;;;14.90;99.90;;;;;;6256523;22;20042;-91
2022/06/09 00:27:25;;;;;;;9.60;4.63;;;14.90;99.90;;;;;;6255858;22;20016;-90
2022/06/09 00:29:50;;;;;;;9.57;5.00;;;14.90;99.90;;;;;;6255941;22;20025;-90
2022/06/09 00:32:16;;;;;;;11.27;5.43;;;14.90;99.90;;;;;;6256480;22;20039;-89
2022/06/09 00:34:42;;;;;;;10.98;4.75;;;14.90;99.90;;;;;;6256023;22;20015;-89
2022/06/09 00:37:08;;;;;;;11.45;5.45;;;14.90;99.90;;;;;;6281371;22;20015;-93
2022/06/09 00:39:33;;;;;;;12.10;5.18;;;14.90;99.90;;;;;;6255834;22;20015;-90
2022/06/09 00:41:59;;;;;;;9.60;4.78;;;14.90;99.90;;;;;;6256104;22;20144;-89
2022/06/09 00:44:29;;;;;;;11.52;4.70;;;14.90;99.90;;;;;;6255932;22;20015;-93
2022/06/09 00:47:01;;;;;;;12.05;5.55;;;14.80;99.90;;;;;;6256171;22;20026;-90
2022/06/09 00:49:47;;;;;;;11.68;4.88;;;14.80;99.90;;;;;;6255612;22;20026;-89
2022/06/09 00:52:17;;;;;;;11.73;5.22;;;14.80;99.90;;;;;;6255890;22;20080;-91
2022/06/09 00:54:48;;;;;;;11.23;5.30;;;14.80;99.90;;;;;;6256075;22;20439;-89
2022/06/09 00:57:29;;;;;;;12.95;5.10;;;14.80;99.90;;;;;;6256593;22;20019;-89
2022/06/09 01:00:02;;;;;;;12.57;4.78;;;14.80;99.90;;;;;;6256103;22;20019;-91
2022/06/09 01:02:28;;;;;;;11.00;4.70;;;14.80;99.90;;;;;;6255947;22;20015;-89
2022/06/09 01:05:13;;;;;;;9.05;4.57;;;14.80;99.90;;;;;;6255733;22;20011;-90
2022/06/09 01:07:44;;;;;;;9.80;4.47;;;14.80;99.90;;;;;;6255711;22;20520;-89
2022/06/09 01:10:10;;;;;;;9.32;4.57;;;14.80;99.90;;;;;;6255886;22;20339;-90
2022/06/09 01:12:42;;;;;;;11.48;4.47;;;14.80;99.90;;;;;;6255590;22;20011;-88
2022/06/09 01:15:34;;;;;;;10.38;4.38;;;14.90;99.90;;;;;;6255875;22;20088;-93
2022/06/09 01:18:15;;;;;;;11.60;4.70;;;14.80;99.90;;;;;;6255831;22;20019;-91
2022/06/09 01:20:48;;;;;;;13.73;4.90;;;14.90;99.90;;;;;;6281349;22;20068;-89
2022/06/09 01:23:17;;;;;;;10.52;4.47;;;14.80;99.90;;;;;;6255941;22;20071;-89
2022/06/09 01:26:02;;;;;;;11.07;4.75;;;14.90;99.90;;;;;;6255390;22;20471;-90
2022/06/09 01:28:49;;;;;;;10.57;5.18;;;14.90;99.90;;;;;;6255275;22;20015;-89
2022/06/09 01:31:58;;;;;;;10.80;4.55;;;14.90;99.90;;;;;;6255249;22;20516;-89
2022/06/09 01:34:33;;;;;;;10.30;4.63;;;14.80;99.90;;;;;;6180241;22;20019;-91
2022/06/09 01:37:06;;;;;;;11.85;5.40;;;14.80;99.90;;;;;;6256005;22;20015;-91
2022/06/09 01:39:49;;;;;;;12.18;4.60;;;14.80;99.90;;;;;;6255699;22;20448;-89
2022/06/09 01:42:37;;;;;;;11.07;4.90;;;14.90;99.90;;;;;;6255400;22;20019;-90
2022/06/09 01:45:14;;;;;;;14.05;5.43;;;14.80;99.90;;;;;;6255990;22;20507;-90
2022/06/09 01:47:53;;;;;;;13.63;5.22;;;14.80;99.90;;;;;;6255783;22;20460;-91
2022/06/09 01:50:52;;;;;;;12.55;5.07;;;14.80;99.90;;;;;;6255932;22;20012;-93
2022/06/09 01:53:32;;;;;;;14.40;5.35;;;14.80;99.90;;;;;;6240873;22;20015;-90
2022/06/09 01:56:41;;;;;;;12.90;5.15;;;14.80;99.90;;;;;;6255682;22;20016;-91
2022/06/09 01:59:29;;;;;;;9.65;4.85;;;14.80;99.90;;;;;;6256009;22;20023;-90
2022/06/09 02:02:12;;;;;;;11.10;4.95;;;14.70;99.90;;;;;;6235616;22;20090;-94
2022/06/09 02:04:50;;;;;;;9.63;4.55;;;14.80;99.90;;;;;;6255320;22;20345;-90
2022/06/09 02:07:21;;;;;;;11.13;4.82;;;14.70;99.90;;;;;;6251243;22;20479;-90
2022/06/09 02:09:47;;;;;;;9.88;5.20;;;14.70;99.90;;;;;;6254776;22;20108;-90
2022/06/09 02:12:16;;;;;;;11.82;5.50;;;14.70;99.90;;;;;;6255193;22;20030;-91
2022/06/09 02:14:52;;;;;;;13.82;5.90;;;14.70;99.90;;;;;;6255116;22;20016;-90
2022/06/09 02:17:19;;;;;;;15.32;6.40;;;14.70;99.90;;;;;;6255680;22;20378;-90
2022/06/09 02:19:47;;;;;;;11.75;5.20;;;14.70;99.90;;;;;;6255728;22;20040;-89
2022/06/09 02:22:13;;;;;;;12.40;5.20;;;14.70;99.90;;;;;;6268369;22;20023;-88
2022/06/09 02:24:42;;;;;;;;;;;14.70;99.90;;;;;;6270344;22;20045;-91
2022/06/09 02:28:00;;;;;;;11.98;5.97;;;14.70;99.90;;;;;;6257723;22;19915;-91
2022/06/09 02:31:09;;;;;;;12.40;6.40;;;14.70;99.90;;;;;;6248431;22;20022;-90
2022/06/09 02:38:51;;;;;;;12.73;6.22;;;14.70;99.90;;;;;;6307559;22;20026;-90
2022/06/09 02:41:23;;;;;;;11.30;5.88;;;14.60;99.90;;;;;;6255176;22;20019;-89
2022/06/09 02:43:49;;;;;;;14.48;6.45;;;14.60;99.90;;;;;;6254420;22;20007;-91
2022/06/09 02:46:17;;;;;;;14.57;6.10;;;14.60;99.90;;;;;;6255459;22;20501;-90
2022/06/09 02:48:46;;;;;;;15.88;6.90;;;14.60;99.90;;;;;;6255776;22;20023;-90
2022/06/09 02:51:21;;;;;;;14.55;6.57;;;14.60;99.90;;;;;;6255496;22;20011;-90
2022/06/09 02:53:46;;;;;;;13.88;6.55;;;14.60;99.90;;;;;;6254933;22;20022;-89
2022/06/09 02:56:12;;;;;;;12.23;6.28;;;14.60;99.90;;;;;;6254687;22;20023;-89
2022/06/09 02:58:38;;;;;;;13.00;6.78;;;14.60;99.90;;;;;;6254924;22;20012;-90
2022/06/09 03:01:04;;;;;;;15.15;6.22;;;14.60;99.90;;;;;;6255431;22;20020;-90
2022/06/09 03:03:29;;;;;;;14.07;5.40;;;14.60;99.90;;;;;;6255466;22;20015;-90
2022/06/09 03:05:55;;;;;;;12.88;6.40;;;14.60;99.90;;;;;;6254847;22;20046;-89
2022/06/09 03:08:21;;;;;;;15.20;6.77;;;14.60;99.90;;;;;;6254646;22;20019;-90
2022/06/09 03:10:46;;;;;;;13.43;5.97;;;14.60;99.90;;;;;;6255277;22;20238;-91
2022/06/09 03:13:20;;;;;;;12.25;6.00;;;14.60;99.90;;;;;;6254971;22;20521;-89
2022/06/09 03:15:52;;;;;;;14.32;6.05;;;14.60;99.90;;;;;;6280022;22;20388;-90
2022/06/09 03:18:23;;;;;;;13.90;6.80;;;14.50;99.90;;;;;;6255066;22;20094;-91
2022/06/09 03:20:49;;;;;;;14.98;6.28;;;14.60;99.90;;;;;;6255114;22;20076;-90
2022/06/09 03:23:16;;;;;;;13.55;7.20;;;14.50;99.90;;;;;;6254818;22;20015;-90
2022/06/09 03:25:44;;;;;;;14.27;6.95;;;14.50;99.90;;;;;;6255000;22;20054;-90
2022/06/09 03:28:10;;;;;;;15.32;7.38;;;14.50;99.90;;;;;;6256798;22;20022;-89
2022/06/09 03:30:39;;;;;;;15.90;6.70;;;14.50;99.90;;;;;;6257493;22;20047;-92
2022/06/09 03:33:07;;;;;;;12.30;5.95;;;14.50;99.90;;;;;;6257424;22;20069;-90
2022/06/09 03:35:34;;;;;;;15.13;6.68;;;14.50;99.90;;;;;;6253272;22;20050;-91
2022/06/09 03:37:59;;;;;;;12.98;5.65;;;14.50;99.90;;;;;;6256445;22;20060;-91
2022/06/09 03:40:28;;;;;;;13.07;6.65;;;14.50;99.90;;;;;;6256714;22;20015;-91
2022/06/09 03:43:02;;;;;;;13.90;6.20;;;14.50;99.90;;;;;;6257212;22;20050;-91
2022/06/09 03:45:31;;;;;;;;;;;14.50;99.90;;;;;;6257436;22;20098;-92
2022/06/09 03:48:38;;;;;;;14.50;6.43;;;14.50;99.90;;;;;;6256719;22;19956;-92
2022/06/09 03:51:04;;;;;;;13.32;6.55;;;14.50;99.90;;;;;;6215162;23;20016;-92
2022/06/09 03:53:29;;;;;;;13.65;6.20;;;14.40;99.90;;;;;;6190195;23;20095;-94
2022/06/09 03:55:57;;;;;;;15.05;6.10;;;14.40;99.90;;;;;;6190023;23;20748;-90
2022/06/09 03:58:23;;;;;;;14.90;6.00;;;14.40;99.90;;;;;;6214684;23;20008;-90
2022/06/09 04:00:48;;;;;;;16.95;6.55;;;14.40;99.90;;;;;;6190421;23;20021;-92
2022/06/09 04:03:14;;;;;;;15.27;7.73;;;14.40;99.90;;;;;;6190397;23;20417;-92
2022/06/09 04:05:40;;;;;;;15.10;7.50;;;14.40;99.90;;;;;;6190165;23;20095;-90
2022/06/09 04:08:06;;;;;;;15.52;6.82;;;14.40;99.90;;;;;;6190326;23;20056;-92
2022/06/09 04:10:33;;;;;;;14.63;6.57;;;14.40;99.90;;;;;;6190200;23;20013;-91
2022/06/09 04:13:00;;;;;;;14.35;6.60;;;14.40;99.90;;;;;;6189890;23;20117;-91
2022/06/09 04:15:26;;;;;;;13.98;6.18;;;14.40;99.90;;;;;;6215228;23;20017;-90
2022/06/09 04:17:52;;;;;;;15.82;7.43;;;14.40;99.90;;;;;;6189818;23;20016;-92
2022/06/09 04:20:20;;;;;;;15.82;6.60;;;14.40;99.90;;;;;;6190089;23;20506;-90
2022/06/09 04:22:45;;;;;;;17.83;7.68;;;14.50;99.90;;;;;;6244251;22;20340;-90
2022/06/09 04:25:20;;;;;;;16.35;8.20;;;14.50;99.90;;;;;;6282647;22;20023;-91
2022/06/09 04:27:47;;;;;;;15.10;7.03;;;14.50;99.90;;;;;;6268041;22;20071;-87
2022/06/09 04:30:13;;;;;;;15.63;7.28;;;14.50;99.90;;;;;;6264009;22;20021;-90
2022/06/09 04:32:39;;;;;;;19.02;8.55;;;14.50;99.90;;;;;;6256861;22;20023;-90
2022/06/09 04:35:06;;;;;;;15.82;8.18;;;14.50;99.90;;;;;;6256193;22;20025;-91
2022/06/09 04:40:38;;;;;;;;;;;;;;;;;;;;;
2022/06/09 04:51:00;;;;;;;18.33;8.00;;;14.60;99.90;;;;;;6308547;22;20023;-88
2022/06/09 05:11:34;;;;;;;17.38;8.23;;;14.60;99.90;;;;;;6312766;22;20023;-88
2022/06/09 05:14:00;;;;;;;17.45;8.43;;;14.60;99.90;;;;;;6258496;22;20114;-93
2022/06/09 05:16:25;;;;;;;15.35;7.80;;;14.60;99.90;;;;;;6281882;22;20065;-92
2022/06/09 05:18:51;;;;;;;15.98;8.77;;;14.60;99.90;;;;;;6308763;22;20023;-93
2022/06/09 05:21:36;;;;;;;20.02;8.48;;;14.70;99.90;;;;;;6256072;22;20019;-89
2022/06/09 05:24:01;;;;;;;14.98;7.63;;;14.60;99.90;;;;;;6255993;22;20023;-93
2022/06/09 05:26:27;;;;;;;16.42;8.02;;;14.70;99.90;;;;;;6256395;22;20041;-93
2022/06/09 05:28:53;;;;;;;16.95;8.00;;;14.70;99.90;;;;;;6257073;22;20015;-93
2022/06/09 05:31:19;;;;;;;16.85;7.88;;;14.70;99.90;;;;;;6258341;22;20019;-93
2022/06/09 05:33:44;;;;;;;17.47;7.63;;;14.70;99.90;;;;;;6255598;22;20043;-94
2022/06/09 05:36:10;;;;;;;14.90;7.65;;;14.70;99.90;;;;;;6259271;22;20015;-91
2022/06/09 05:46:53;;;;;;;17.40;8.38;;;14.80;99.90;;;;;;6277981;22;20063;-93
2022/06/09 05:49:19;;;;;;;15.57;7.15;;;14.80;99.90;;;;;;6255274;22;20019;-94
2022/06/09 05:51:47;;;;;;;14.50;7.95;;;14.80;99.90;;;;;;6256599;22;20015;-96
2022/06/09 05:54:15;;;;;;;16.80;7.53;;;14.80;99.90;;;;;;6257048;22;20389;-93
2022/06/09 05:56:50;;;;;;;14.48;7.18;;;14.80;99.90;;;;;;6281021;22;20345;-90
2022/06/09 05:59:16;;;;;;;17.23;7.60;;;14.90;99.90;;;;;;6258266;22;20019;-91
2022/06/09 06:01:43;;;;;;;15.15;7.95;;;14.90;99.90;;;;;;6258877;22;20033;-90
2022/06/09 06:04:10;;;;;;;17.10;7.60;;;14.90;99.90;;;;;;6287426;22;20025;-93
2022/06/09 06:06:43;;;;;;;17.52;8.13;;;14.90;99.90;;;;;;6287084;22;20086;-95
2022/06/09 06:09:23;;;;;;;16.17;7.63;;;15.00;99.90;;;;;;6284661;22;20015;-94
2022/06/09 06:11:50;;;;;;;15.93;7.55;;;14.90;99.90;;;;;;6283975;22;20072;-91
2022/06/09 06:14:22;;;;;;;15.77;7.55;;;14.90;99.90;;;;;;6259325;22;20069;-92
2022/06/09 06:16:58;;;;;;;15.40;8.25;;;15.00;99.90;;;;;;6261245;22;20015;-92
2022/06/09 06:19:30;;;;;;;19.95;9.25;;;15.00;99.90;;;;;;6236773;22;20063;-96
2022/06/09 09:56:23;;;;;;;0.57;0.40;;;18.00;99.90;;;;;;6307076;22;20344;-90
2022/06/09 09:59:05;;;;;;;1.15;0.57;;;18.00;99.90;;;;;;6255685;22;20022;-92
2022/06/09 10:35:54;;;;;;;;;;;;;;;;;;;;;
2022/06/09 10:38:36;;;;;;;2.17;0.43;;;18.80;99.90;;;;;;6310829;22;20025;-90
2022/06/09 10:41:14;;;;;;;1.50;0.50;;;18.90;99.90;;;;;;6285870;22;20018;-92
2022/06/09 10:43:55;;;;;;;1.40;0.70;;;18.80;99.90;;;;;;6286072;22;20046;-92
2022/06/09 10:55:14;;;;;;;1.10;0.50;;;18.90;99.90;;;;;;6285301;22;20352;-91
2022/06/09 11:34:44;;;;;;;0.88;0.40;;;20.10;99.90;;;;;;6338567;22;20023;-89
2022/06/09 11:37:32;;;;;;;1.33;0.38;;;20.10;99.90;;;;;;6284975;22;20018;-90
2022/06/09 11:40:35;;;;;;;1.08;0.40;;;20.20;99.90;;;;;;6285395;22;20019;-90
2022/06/09 11:43:35;;;;;;;1.33;0.30;;;20.30;99.90;;;;;;6285083;22;20076;-91
2022/06/09 11:46:05;;;;;;;0.40;0.30;;;20.30;99.90;;;;;;6311364;22;20018;-90
2022/06/09 11:48:41;;;;;;;1.08;0.38;;;20.40;99.90;;;;;;6312219;22;20018;-89
2022/06/09 11:54:59;;;;;;;1.42;0.40;;;20.30;99.90;;;;;;6334298;22;20105;-89
2022/06/09 11:57:49;;;;;;;1.73;0.40;;;20.20;99.90;;;;;;6194080;22;20026;-92
2022/06/09 12:00:27;;;;;;;3.13;0.47;;;20.20;99.90;;;;;;6289236;22;20015;-90
2022/06/09 12:03:29;;;;;;;1.00;0.40;;;20.10;99.90;;;;;;6290292;22;20022;-90
2022/06/09 12:06:17;;;;;;;0.70;0.30;;;20.10;99.90;;;;;;6291081;22;20042;-91
2022/06/09 12:11:21;;;;;;;3.08;0.40;;;19.90;99.90;;;;;;6340256;22;20019;-90
2022/06/09 12:14:09;;;;;;;1.30;0.50;;;20.00;99.90;;;;;;6286770;22;20105;-88
2022/06/09 12:16:38;;;;;;;1.30;0.50;;;20.10;99.90;;;;;;6312206;22;20042;-88
2022/06/09 12:19:18;;;;;;;2.80;0.40;;;20.30;99.90;;;;;;6286417;22;20019;-91
2022/06/09 12:22:22;;;;;;;1.00;0.30;;;20.40;99.90;;;;;;6285155;22;20038;-90
2022/06/09 12:25:16;;;;;;;2.63;0.60;;;20.60;99.90;;;;;;6281483;22;20019;-92
2022/06/09 12:35:45;;;;;;;2.92;0.32;;;20.80;99.90;;;;;;6339776;22;20068;-92
2022/06/09 12:38:37;;;;;;;1.20;0.40;;;20.70;99.90;;;;;;6289217;22;20025;-95
2022/06/09 12:41:32;;;;;;;1.92;0.63;;;20.60;99.90;;;;;;6311788;22;20463;-91
2022/06/09 12:44:23;;;;;;;2.25;0.40;;;20.60;99.90;;;;;;6285596;22;20053;-89
2022/06/09 12:47:02;;;;;;;2.50;0.60;;;20.60;99.90;;;;;;6286282;22;20015;-90
2022/06/09 12:49:36;;;;;;;0.93;0.43;;;20.50;99.90;;;;;;6286465;22;20027;-90
2022/06/09 13:03:56;;;;;;;2.30;0.60;;;20.30;99.90;;;;;;6219837;23;20028;-91
2022/06/09 13:06:35;;;;;;;2.63;0.60;;;20.50;99.90;;;;;;6193854;23;20099;-91
2022/06/09 13:14:19;;;;;;;4.35;0.60;;;20.50;99.90;;;;;;6308727;22;20023;-91
2022/06/09 13:16:47;;;;;;;1.77;0.40;;;20.30;99.90;;;;;;6255486;22;20034;-90
2022/06/09 13:19:19;;;;;;;4.10;0.75;;;20.10;99.90;;;;;;6255176;22;20046;-91
2022/06/09 13:21:46;;;;;;;2.10;0.75;;;20.00;99.90;;;;;;6254699;22;20046;-88
2022/06/09 13:29:38;;;;;;;2.40;0.90;;;20.00;99.90;;;;;;6308460;22;20027;-91
2022/06/09 13:32:22;;;;;;;2.65;1.15;;;19.90;99.90;;;;;;6255644;22;20024;-90
2022/06/09 13:34:56;;;;;;;2.17;0.75;;;19.90;99.90;;;;;;6281026;22;20027;-91
2022/06/09 13:42:46;;;;;;;3.15;0.68;;;19.90;99.90;;;;;;6307837;22;20024;-91
2022/06/09 13:45:24;;;;;;;2.40;0.65;;;20.00;99.90;;;;;;6253638;22;20050;-90
2022/06/09 13:48:12;;;;;;;0.80;0.40;;;20.00;99.90;;;;;;6254897;22;20026;-90
2022/06/09 13:51:00;;;;;;;;;;;19.90;99.90;;;;;;6280854;22;20019;-88
2022/06/09 13:53:26;;;;;;;;;;;20.00;99.90;;;;;;6253803;22;19914;-89
2022/06/09 13:55:52;;;;;;;3.40;0.60;;;20.10;99.90;;;;;;6254791;22;19930;-91
2022/06/09 13:58:17;;;;;;;1.83;0.60;;;20.20;99.90;;;;;;6255104;22;20008;-88
2022/06/09 14:00:53;;;;;;;1.75;0.68;;;20.40;99.90;;;;;;6280512;22;20019;-89
2022/06/09 14:03:25;;;;;;;2.63;0.52;;;20.50;99.90;;;;;;6254826;22;20073;-90
2022/06/09 14:06:02;;;;;;;1.67;0.73;;;20.40;99.90;;;;;;6253334;22;20448;-88
2022/06/09 14:08:32;;;;;;;3.28;0.80;;;20.20;99.90;;;;;;6279943;22;20050;-89
2022/06/09 14:10:59;;;;;;;2.75;0.63;;;20.00;99.90;;;;;;6253890;22;20023;-90
2022/06/09 14:13:24;;;;;;;2.17;0.50;;;20.00;99.90;;;;;;6252160;22;20014;-90
2022/06/09 14:15:52;;;;;;;0.93;0.50;;;20.10;99.90;;;;;;6252011;22;20436;-88
2022/06/09 14:18:36;;;;;;;1.27;0.60;;;20.10;99.90;;;;;;6277562;22;20015;-91
2022/06/09 14:21:05;;;;;;;1.48;0.60;;;20.10;99.90;;;;;;6277743;22;20019;-91
2022/06/09 14:23:34;;;;;;;1.33;0.63;;;20.10;99.90;;;;;;6254225;22;20021;-92
2022/06/09 14:26:23;;;;;;;1.55;0.40;;;20.20;99.90;;;;;;6280249;22;20030;-91
2022/06/09 14:28:52;;;;;;;1.55;0.73;;;20.10;99.90;;;;;;6250189;22;20455;-91
2022/06/09 14:31:20;;;;;;;1.67;0.50;;;20.00;99.90;;;;;;6277356;22;20042;-91
2022/06/09 14:33:46;;;;;;;1.65;0.60;;;20.00;99.90;;;;;;6277732;22;20019;-93
2022/06/09 14:36:15;;;;;;;;;;;20.10;99.90;;;;;;6255039;22;20015;-91
2022/06/09 14:38:43;;;;;;;1.08;0.30;;;20.10;99.90;;;;;;6253545;22;20328;-92
2022/06/09 14:41:13;;;;;;;1.65;0.57;;;20.20;99.90;;;;;;6253563;22;20341;-92
2022/06/09 14:43:39;;;;;;;0.70;0.32;;;20.20;99.90;;;;;;6280579;22;20023;-91
2022/06/09 14:46:04;;;;;;;1.45;0.50;;;20.20;99.90;;;;;;6254487;22;20026;-91
2022/06/09 14:48:32;;;;;;;0.98;0.50;;;20.20;99.90;;;;;;6254510;22;20031;-90
2022/06/09 14:50:58;;;;;;;2.15;0.50;;;20.10;99.90;;;;;;6280125;22;20037;-89
2022/06/09 14:53:24;;;;;;;2.03;0.63;;;20.10;99.90;;;;;;6280142;22;20079;-92
2022/06/09 14:55:51;;;;;;;;;;;20.10;99.90;;;;;;6255223;22;20437;-91
2022/06/09 14:58:25;;;;;;;1.60;0.55;;;20.20;99.90;;;;;;6254640;22;19915;-91
2022/06/09 15:00:54;;;;;;;2.15;0.82;;;20.20;99.90;;;;;;6254594;22;20018;-92
2022/06/09 15:03:20;;;;;;;3.33;0.63;;;20.20;99.90;;;;;;6254905;22;20015;-89
2022/06/09 15:05:46;;;;;;;2.05;0.40;;;20.20;99.90;;;;;;6254352;22;20528;-91
2022/06/09 15:08:13;;;;;;;1.85;0.60;;;20.10;99.90;;;;;;6254934;22;20456;-90
2022/06/09 15:10:56;;;;;;;1.52;0.40;;;20.00;99.90;;;;;;6254653;22;20434;-91
2022/06/09 15:13:25;;;;;;;2.08;0.50;;;19.80;99.90;;;;;;6280060;22;20016;-91
2022/06/09 15:16:01;;;;;;;2.90;0.80;;;19.60;99.90;;;;;;6255127;22;20064;-91
2022/06/09 15:18:50;;;;;;;4.85;0.70;;;19.60;99.90;;;;;;6280191;22;20019;-92
2022/06/09 15:22:08;;;;;;;;;;;;;;;;;;;;;
2022/06/09 16:10:08;;;;;;;1.83;0.60;;;18.70;99.90;;;;;;6339029;22;20027;-92
2022/06/09 16:13:04;;;;;;;1.98;0.70;;;18.70;99.90;;;;;;6288943;22;20023;-92
2022/06/09 16:15:34;;;;;;;5.60;1.50;;;18.70;99.90;;;;;;6286561;22;20050;-90
2022/06/09 16:18:03;;;;;;;2.13;0.77;;;18.70;99.90;;;;;;6286755;22;20087;-90
2022/06/09 16:20:52;;;;;;;3.40;1.00;;;18.70;99.90;;;;;;6288253;22;20152;-92
2022/06/09 16:23:19;;;;;;;2.08;0.50;;;18.70;99.90;;;;;;6287020;22;20018;-90
2022/06/09 16:25:56;;;;;;;;;;;;;;;;;;;;;
2022/06/09 16:28:23;;;;;;;2.90;0.73;;;18.70;99.90;;;;;;6311652;22;20022;-91
2022/06/09 16:30:53;;;;;;;1.92;0.55;;;18.60;99.90;;;;;;6286887;22;20060;-90
2022/06/09 16:33:26;;;;;;;1.83;0.70;;;18.60;99.90;;;;;;6286292;22;20018;-91
2022/06/09 16:35:55;;;;;;;1.35;0.50;;;18.50;99.90;;;;;;6286599;22;20015;-92
2022/06/09 16:38:28;;;;;;;1.63;0.57;;;18.50;99.90;;;;;;6286499;22;20018;-90
2022/06/09 16:40:54;;;;;;;1.67;0.60;;;18.40;99.90;;;;;;6286331;22;20014;-91
2022/06/09 16:43:22;;;;;;;3.30;0.55;;;18.40;99.90;;;;;;6286590;22;20015;-91
2022/06/09 16:45:54;;;;;;;2.30;0.73;;;18.40;99.90;;;;;;6286757;22;20015;-91
2022/06/09 16:48:20;;;;;;;2.95;0.95;;;18.40;99.90;;;;;;6286854;22;20104;-91
2022/06/09 16:50:52;;;;;;;4.05;1.05;;;18.40;99.90;;;;;;6286313;22;20065;-92
2022/06/09 16:53:27;;;;;;;2.42;0.80;;;18.40;99.90;;;;;;6312343;22;20015;-91
2022/06/09 16:55:55;;;;;;;1.45;0.40;;;18.40;99.90;;;;;;6286767;22;20022;-92
2022/06/09 16:58:31;;;;;;;;;;;;;;;;;;;;;
2022/06/09 17:00:57;;;;;;;4.03;0.80;;;18.40;99.90;;;;;;6312227;22;20050;-92
2022/06/09 17:03:23;;;;;;;2.92;0.52;;;18.30;99.90;;;;;;6286557;22;20022;-91
2022/06/09 17:05:54;;;;;;;4.90;0.63;;;18.30;99.90;;;;;;6286421;22;20019;-90
2022/06/09 17:08:26;;;;;;;2.00;0.50;;;18.20;99.90;;;;;;6311022;22;20018;-91
2022/06/09 17:11:12;;;;;;;3.30;0.60;;;18.20;99.90;;;;;;6286050;22;20019;-91
2022/06/09 17:13:38;;;;;;;1.42;0.50;;;18.10;99.90;;;;;;6286367;22;20444;-92
2022/06/09 17:16:07;;;;;;;;;;;18.10;99.90;;;;;;6286844;22;20471;-91
2022/06/09 17:18:44;;;;;;;2.47;0.60;;;18.10;99.90;;;;;;6287013;22;20389;-92
2022/06/09 17:21:43;;;;;;;2.05;0.60;;;18.20;99.90;;;;;;6285920;22;20321;-91
2022/06/09 17:24:12;;;;;;;2.47;0.63;;;18.20;99.90;;;;;;6287014;22;20096;-93
2022/06/09 17:26:38;;;;;;;3.05;0.50;;;18.20;99.90;;;;;;6286264;22;20440;-91
2022/06/09 17:29:05;;;;;;;2.33;0.52;;;18.20;99.90;;;;;;6286286;22;20098;-92
2022/06/09 17:31:36;;;;;;;2.28;0.60;;;18.20;99.90;;;;;;6286360;22;20018;-90
2022/06/09 17:34:02;;;;;;;1.75;0.50;;;18.20;99.90;;;;;;6311942;22;20017;-91
2022/06/09 17:36:30;;;;;;;3.00;0.75;;;18.20;99.90;;;;;;6311873;22;20018;-91
2022/06/09 17:39:06;;;;;;;3.03;0.60;;;18.20;99.90;;;;;;6285971;22;20097;-93
2022/06/09 17:41:32;;;;;;;3.20;0.70;;;18.10;99.90;;;;;;6286547;22;20011;-92
2022/06/09 17:44:03;;;;;;;7.15;0.63;;;18.10;99.90;;;;;;6286414;22;20042;-92
2022/06/09 17:46:41;;;;;;;3.05;0.60;;;18.10;99.90;;;;;;6286548;22;20098;-92
2022/06/09 17:49:06;;;;;;;3.38;0.50;;;18.10;99.90;;;;;;6286344;22;21198;-91
2022/06/09 17:51:40;;;;;;;2.47;0.30;;;18.00;99.90;;;;;;6286198;22;20018;-91
2022/06/09 17:54:06;;;;;;;2.00;0.40;;;18.00;99.90;;;;;;6286093;22;20046;-91
2022/06/09 17:56:34;;;;;;;1.08;0.40;;;18.00;99.90;;;;;;6285869;22;20011;-92
2022/06/09 17:59:08;;;;;;;2.08;0.40;;;18.00;99.90;;;;;;6317103;22;20015;-91
2022/06/09 18:01:34;;;;;;;2.35;0.40;;;18.00;99.90;;;;;;6321665;22;20015;-89
2022/06/09 18:04:00;;;;;;;;;;;17.90;99.90;;;;;;6318708;22;20454;-93
2022/06/09 18:06:26;;;;;;;1.70;0.40;;;17.90;99.90;;;;;;6289156;22;20016;-89
2022/06/09 18:08:52;;;;;;;2.40;0.50;;;17.90;99.90;;;;;;6284177;22;20054;-91
2022/06/09 18:11:20;;;;;;;3.03;0.65;;;17.90;99.90;;;;;;6310870;22;20046;-89
2022/06/09 18:13:46;;;;;;;0.80;0.25;;;17.90;99.90;;;;;;6285383;22;20025;-89
2022/06/09 18:16:12;;;;;;;3.03;0.60;;;17.90;99.90;;;;;;6311164;22;20093;-90
2022/06/09 18:18:38;;;;;;;2.45;0.40;;;17.90;99.90;;;;;;6310928;22;20023;-91
2022/06/09 18:21:05;;;;;;;2.88;0.43;;;17.90;99.90;;;;;;6285553;22;20029;-90
2022/06/09 18:23:32;;;;;;;1.25;0.30;;;17.80;99.90;;;;;;6284780;22;20018;-89
2022/06/09 18:26:00;;;;;;;2.42;0.43;;;17.80;99.90;;;;;;6285118;22;20102;-90
2022/06/09 18:28:27;;;;;;;2.13;0.40;;;17.90;99.90;;;;;;6311040;22;20026;-90
2022/06/09 18:30:53;;;;;;;2.65;0.50;;;17.80;99.90;;;;;;6311164;22;20444;-90
2022/06/09 18:33:19;;;;;;;3.15;0.50;;;17.80;99.90;;;;;;6285479;22;20011;-90
2022/06/09 18:35:46;;;;;;;3.40;1.13;;;17.70;99.90;;;;;;6285434;22;20050;-91
2022/06/09 18:38:13;;;;;;;1.40;0.30;;;17.70;99.90;;;;;;6285331;22;20015;-89
2022/06/09 18:40:40;;;;;;;1.95;0.50;;;17.70;99.90;;;;;;6285521;22;20044;-89
2022/06/09 18:43:13;;;;;;;1.60;0.40;;;17.70;99.90;;;;;;6285377;22;20015;-90
2022/06/09 18:45:42;;;;;;;1.65;0.50;;;17.60;99.90;;;;;;6285421;22;20044;-89
2022/06/09 18:48:11;;;;;;;3.13;0.70;;;17.60;99.90;;;;;;6311802;22;20083;-89
2022/06/09 18:50:39;;;;;;;3.00;0.50;;;17.60;99.90;;;;;;6312860;22;20093;-89
2022/06/09 18:53:05;;;;;;;2.03;0.52;;;17.50;99.90;;;;;;6286812;22;20076;-89
2022/06/09 18:55:31;;;;;;;2.78;0.30;;;17.50;99.90;;;;;;6312373;22;20019;-90
2022/06/09 18:58:01;;;;;;;0.40;0.20;;;17.40;99.90;;;;;;6287439;22;20104;-89
2022/06/09 19:00:27;;;;;;;2.55;0.50;;;17.40;99.90;;;;;;6312991;22;20099;-89
2022/06/09 19:02:53;;;;;;;2.35;0.70;;;17.40;99.90;;;;;;6287324;22;20015;-90
2022/06/09 19:05:20;;;;;;;2.33;0.52;;;17.30;99.90;;;;;;6287488;22;20055;-90
2022/06/09 19:07:46;;;;;;;;;;;17.30;99.90;;;;;;6287770;22;20444;-89
2022/06/09 19:10:20;;;;;;;1.70;0.30;;;17.20;99.90;;;;;;6312881;22;19953;-89
2022/06/09 19:12:49;;;;;;;1.45;0.40;;;17.20;99.90;;;;;;6287995;22;20019;-90
2022/06/09 19:15:16;;;;;;;1.10;0.45;;;17.20;99.90;;;;;;6313118;22;20095;-90
2022/06/09 19:17:43;;;;;;;3.35;0.43;;;17.10;99.90;;;;;;6312690;22;20018;-90
2022/06/09 19:20:11;;;;;;;2.05;0.40;;;17.10;99.90;;;;;;6286967;22;20075;-91
2022/06/09 19:22:37;;;;;;;1.48;0.47;;;17.10;99.90;;;;;;6287313;22;20021;-90
2022/06/09 19:25:03;;;;;;;3.45;0.43;;;17.00;99.90;;;;;;6312893;22;20015;-89
2022/06/09 19:27:29;;;;;;;2.67;0.60;;;16.90;99.90;;;;;;6286803;22;20010;-89
2022/06/09 19:29:55;;;;;;;1.10;0.40;;;16.90;99.90;;;;;;6340080;22;20015;-88
2022/06/09 19:32:21;;;;;;;1.38;0.60;;;16.80;99.90;;;;;;6286499;22;20017;-88
2022/06/09 19:34:46;;;;;;;1.38;0.45;;;16.80;99.90;;;;;;6285374;22;20462;-88
2022/06/09 19:37:21;;;;;;;1.88;0.50;;;16.70;99.90;;;;;;6286943;22;20015;-90
2022/06/09 19:39:47;;;;;;;2.72;0.40;;;16.70;99.90;;;;;;6286842;22;20061;-92
2022/06/09 19:42:13;;;;;;;2.08;0.55;;;16.60;99.90;;;;;;6312924;22;20011;-90
2022/06/09 19:49:58;;;;;;;1.65;0.55;;;16.40;99.90;;;;;;6340068;22;20513;-90
2022/06/09 19:52:24;;;;;;;1.30;0.40;;;16.40;99.90;;;;;;6287030;22;20015;-91
2022/06/09 19:54:50;;;;;;;2.17;0.50;;;16.30;99.90;;;;;;6287156;22;20033;-90
2022/06/09 19:57:17;;;;;;;1.05;0.43;;;16.30;99.90;;;;;;6287030;22;20022;-89
2022/06/09 19:59:44;;;;;;;2.45;0.52;;;16.20;99.90;;;;;;6312666;22;20072;-91
2022/06/09 20:02:15;;;;;;;2.38;0.40;;;16.10;99.90;;;;;;6286858;22;20050;-90
2022/06/09 20:04:41;;;;;;;4.22;0.82;;;16.10;99.90;;;;;;6286797;22;20050;-89
2022/06/09 20:07:11;;;;;;;0.65;0.38;;;16.00;99.90;;;;;;6287221;22;20444;-90
2022/06/09 20:09:37;;;;;;;4.20;0.80;;;16.00;99.90;;;;;;6286317;22;20026;-90
2022/06/09 20:12:03;;;;;;;2.30;0.77;;;16.00;99.90;;;;;;6286666;22;20011;-90
2022/06/09 20:14:29;;;;;;;1.88;0.70;;;16.00;99.90;;;;;;6312427;22;20023;-88
2022/06/09 20:16:55;;;;;;;1.00;0.45;;;15.90;99.90;;;;;;6312140;22;20013;-88
2022/06/09 20:19:21;;;;;;;1.77;0.47;;;15.90;99.90;;;;;;6312433;22;20019;-88
2022/06/09 20:21:51;;;;;;;1.50;0.50;;;15.80;99.90;;;;;;6286383;22;20450;-89
2022/06/09 20:24:17;;;;;;;3.45;0.52;;;15.70;99.90;;;;;;6285840;22;20344;-88